createdAt,value
2018-08-18T00:01:52.904Z,19.60
2018-08-18T00:05:56.091Z,19.60
2018-08-18T00:09:59.053Z,19.60
2018-08-18T00:14:01.879Z,19.00
2018-08-18T00:18:04.650Z,19.10
2018-08-18T00:22:07.375Z,18.20
2018-08-18T00:26:10.156Z,19.10
2018-08-18T00:30:18.720Z,19.10
2018-08-18T00:34:21.497Z,19.10
2018-08-18T00:38:24.285Z,19.00
2018-08-18T00:42:27.056Z,18.80
2018-08-18T00:46:31.212Z,17.90
2018-08-18T00:50:43.202Z,17.50
2018-08-18T00:54:46.025Z,17.20
2018-08-18T00:58:50.931Z,16.70
2018-08-18T01:02:53.971Z,16.90
2018-08-18T01:06:56.944Z,17.20
2018-08-18T01:10:59.842Z,17.80
2018-08-18T01:15:02.749Z,17.50
2018-08-18T01:19:05.519Z,17.70
2018-08-18T01:23:08.324Z,17.60
2018-08-18T01:27:11.163Z,17.30
2018-08-18T01:31:19.677Z,17.50
2018-08-18T01:35:22.384Z,17.60
2018-08-18T01:39:25.100Z,17.40
2018-08-18T01:43:27.697Z,17.10
2018-08-18T01:47:30.389Z,16.60
2018-08-18T01:51:33.073Z,17.00
2018-08-18T01:55:35.769Z,17.00
2018-08-18T01:59:40.701Z,17.50
2018-08-18T02:03:43.348Z,17.30
2018-08-18T02:07:46.126Z,16.60
2018-08-18T02:11:52.633Z,16.40
2018-08-18T02:15:55.527Z,17.10
2018-08-18T02:19:58.684Z,16.50
2018-08-18T02:24:02.592Z,16.80
2018-08-18T02:28:06.475Z,16.80
2018-08-18T02:32:26.710Z,15.80
2018-08-18T02:36:29.495Z,15.70
2018-08-18T02:40:32.234Z,15.50
2018-08-18T02:44:35.001Z,16.10
2018-08-18T02:48:37.743Z,15.50
2018-08-18T02:52:40.559Z,15.80
2018-08-18T02:56:43.863Z,14.90
2018-08-18T03:00:46.561Z,14.80
2018-08-18T03:04:49.253Z,14.50
2018-08-18T03:08:52.014Z,14.50
2018-08-18T03:12:58.350Z,16.00
2018-08-18T03:17:01.305Z,16.70
2018-08-18T03:21:04.174Z,15.70
2018-08-18T03:25:07.015Z,16.00
2018-08-18T03:29:10.287Z,16.40
2018-08-18T03:33:12.998Z,15.30
2018-08-18T03:37:25.625Z,16.10
2018-08-18T03:41:29.064Z,15.60
2018-08-18T03:45:31.745Z,15.20
2018-08-18T03:49:34.436Z,15.00
2018-08-18T03:53:37.082Z,14.70
2018-08-18T03:57:46.408Z,14.40
2018-08-18T04:01:52.283Z,14.30
2018-08-18T04:05:55.022Z,14.80
2018-08-18T04:10:02.387Z,15.40
2018-08-18T04:14:05.055Z,14.90
2018-08-18T04:18:12.065Z,13.90
2018-08-18T04:22:15.096Z,13.60
2018-08-18T04:26:17.724Z,13.50
2018-08-18T04:30:21.349Z,13.20
2018-08-18T04:34:23.988Z,13.10
2018-08-18T04:38:26.694Z,12.90
2018-08-18T04:42:29.350Z,13.40
2018-08-18T04:46:32.019Z,14.40
2018-08-18T04:50:34.745Z,14.50
2018-08-18T04:54:37.311Z,14.40
2018-08-18T04:58:40.188Z,14.90
2018-08-18T05:02:59.161Z,14.30
2018-08-18T05:07:01.905Z,13.90
2018-08-18T05:11:04.865Z,13.70
2018-08-18T05:15:07.759Z,13.90
2018-08-18T05:19:10.614Z,13.90
2018-08-18T05:23:20.836Z,13.90
2018-08-18T05:27:23.554Z,13.90
2018-08-18T05:31:26.251Z,13.90
2018-08-18T05:35:29.001Z,14.10
2018-08-18T05:39:31.728Z,14.30
2018-08-18T05:43:34.465Z,14.50
2018-08-18T05:47:37.258Z,14.70
2018-08-18T05:51:43.771Z,14.60
2018-08-18T05:55:47.530Z,15.20
2018-08-18T05:59:50.406Z,16.00
2018-08-18T06:04:03.760Z,16.40
2018-08-18T06:08:06.626Z,16.30
2018-08-18T06:12:14.930Z,16.10
2018-08-18T06:16:17.595Z,16.10
2018-08-18T06:20:20.376Z,16.20
2018-08-18T06:24:23.008Z,16.50
2018-08-18T06:28:25.890Z,16.90
2018-08-18T06:32:29.304Z,17.70
2018-08-18T06:36:31.913Z,17.50
2018-08-18T06:40:35.160Z,17.80
2018-08-18T06:44:38.150Z,18.20
2018-08-18T06:48:41.296Z,18.10
2018-08-18T06:52:45.380Z,18.50
2018-08-18T06:56:48.199Z,19.20
2018-08-18T07:00:50.823Z,19.50
2018-08-18T07:04:53.439Z,19.30
2018-08-18T07:08:56.069Z,19.20
2018-08-18T07:13:01.625Z,20.00
2018-08-18T07:17:04.347Z,20.20
2018-08-18T07:21:07.022Z,20.70
2018-08-18T07:25:09.783Z,20.90
2018-08-18T07:29:12.742Z,21.40
2018-08-18T07:33:17.084Z,21.60
2018-08-18T07:37:19.823Z,21.80
2018-08-18T07:41:22.473Z,21.80
2018-08-18T07:45:25.338Z,22.30
2018-08-18T07:49:27.974Z,21.80
2018-08-18T07:53:30.622Z,22.00
2018-08-18T07:57:35.622Z,22.80
2018-08-18T08:01:38.267Z,22.70
2018-08-18T08:05:41.189Z,23.10
2018-08-18T08:09:45.085Z,23.10
2018-08-18T08:13:48.204Z,23.10
2018-08-18T08:17:51.259Z,23.10
2018-08-18T08:21:53.929Z,24.10
2018-08-18T08:25:56.723Z,24.50
2018-08-18T08:29:59.310Z,24.30
2018-08-18T08:34:02.017Z,24.80
2018-08-18T08:38:04.708Z,24.40
2018-08-18T08:42:07.415Z,24.60
2018-08-18T08:46:10.055Z,24.40
2018-08-18T08:50:14.199Z,23.80
2018-08-18T08:54:17.956Z,24.40
2018-08-18T08:58:20.703Z,24.20
2018-08-18T09:02:23.487Z,25.10
2018-08-18T09:06:26.225Z,25.30
2018-08-18T09:10:29.166Z,25.10
2018-08-18T09:14:31.870Z,25.20
2018-08-18T09:18:36.874Z,24.60
2018-08-18T09:23:01.388Z,25.00
2018-08-18T09:27:05.264Z,24.70
2018-08-18T09:31:07.921Z,24.90
2018-08-18T09:35:10.557Z,25.40
2018-08-18T09:39:23.689Z,24.90
2018-08-18T09:43:26.676Z,25.40
2018-08-18T09:47:29.425Z,25.60
2018-08-18T09:51:32.123Z,25.20
2018-08-18T09:55:34.901Z,25.70
2018-08-18T09:59:37.716Z,24.70
2018-08-18T10:03:40.396Z,25.20
2018-08-18T10:07:43.160Z,25.50
2018-08-18T10:11:45.826Z,25.70
2018-08-18T10:15:48.397Z,25.90
2018-08-18T10:19:51.061Z,26.20
2018-08-18T10:23:53.727Z,26.10
2018-08-18T10:27:56.449Z,26.20
2018-08-18T10:31:59.679Z,26.70
2018-08-18T10:36:02.741Z,26.00
2018-08-18T10:40:09.602Z,25.80
2018-08-18T10:44:13.827Z,26.10
2018-08-18T10:48:16.454Z,25.70
2018-08-18T10:52:32.279Z,25.80
2018-08-18T10:56:34.963Z,26.40
2018-08-18T11:00:37.789Z,26.80
2018-08-18T11:04:40.432Z,26.50
2018-08-18T11:08:43.345Z,26.30
2018-08-18T11:12:45.988Z,26.60
2018-08-18T11:16:49.569Z,25.60
2018-08-18T11:20:52.228Z,26.10
2018-08-18T11:24:54.865Z,26.50
2018-08-18T11:29:08.921Z,26.50
2018-08-18T11:33:18.293Z,26.30
2018-08-18T11:37:20.898Z,25.90
2018-08-18T11:41:23.706Z,26.50
2018-08-18T11:45:27.516Z,26.80
2018-08-18T11:49:30.730Z,26.50
2018-08-18T11:53:33.609Z,26.70
2018-08-18T11:57:36.470Z,26.90
2018-08-18T12:01:40.283Z,26.70
2018-08-18T12:06:01.793Z,26.30
2018-08-18T12:10:04.651Z,27.00
2018-08-18T12:14:07.307Z,25.80
2018-08-18T12:18:09.996Z,26.30
2018-08-18T12:22:12.693Z,26.50
2018-08-18T12:26:18.578Z,26.80
2018-08-18T12:30:29.180Z,26.50
2018-08-18T12:34:32.054Z,26.70
2018-08-18T12:38:35.032Z,26.80
2018-08-18T12:42:37.943Z,26.50
2018-08-18T12:46:46.212Z,26.90
2018-08-18T12:50:48.931Z,27.50
2018-08-18T12:54:51.794Z,27.00
2018-08-18T12:58:54.643Z,27.50
2018-08-18T13:02:57.245Z,27.20
2018-08-18T13:06:59.852Z,26.70
2018-08-18T13:11:02.583Z,26.80
2018-08-18T13:15:05.376Z,26.60
2018-08-18T13:19:08.038Z,26.40
2018-08-18T13:23:11.305Z,26.40
2018-08-18T13:27:14.318Z,26.90
2018-08-18T13:31:17.139Z,27.20
2018-08-18T13:35:19.915Z,27.20
2018-08-18T13:39:22.599Z,27.10
2018-08-18T13:43:41.356Z,26.90
2018-08-18T13:47:44.148Z,27.00
2018-08-18T13:51:46.989Z,26.80
2018-08-18T13:55:49.951Z,27.10
2018-08-18T13:59:52.682Z,27.20
2018-08-18T14:03:55.313Z,27.10
2018-08-18T14:08:00.226Z,26.90
2018-08-18T14:12:08.770Z,27.00
2018-08-18T14:16:12.055Z,27.00
2018-08-18T14:20:14.737Z,26.80
2018-08-18T14:24:21.015Z,27.00
2018-08-18T14:28:23.778Z,26.50
2018-08-18T14:32:28.140Z,26.70
2018-08-18T14:36:30.842Z,26.40
2018-08-18T14:40:33.555Z,26.50
2018-08-18T14:44:37.066Z,25.90
2018-08-18T14:48:39.764Z,25.80
2018-08-18T14:52:43.929Z,25.60
2018-08-18T14:56:46.594Z,25.30
2018-08-18T15:00:50.377Z,25.70
2018-08-18T15:04:53.178Z,25.90
2018-08-18T15:08:56.073Z,26.00
2018-08-18T15:12:59.685Z,26.10
2018-08-18T15:17:02.473Z,26.20
2018-08-18T15:21:05.493Z,25.70
2018-08-18T15:25:08.315Z,25.60
2018-08-18T15:29:15.623Z,25.60
2018-08-18T15:33:20.335Z,25.60
2018-08-18T15:37:22.992Z,25.60
2018-08-18T15:41:25.667Z,25.30
2018-08-18T15:45:29.037Z,25.30
2018-08-18T15:49:31.692Z,25.50
2018-08-18T15:53:54.107Z,25.50
2018-08-18T15:57:56.847Z,25.40
2018-08-18T16:01:59.502Z,25.30
2018-08-18T16:06:02.206Z,25.20
2018-08-18T16:10:04.841Z,25.20
2018-08-18T16:14:07.740Z,25.10
2018-08-18T16:18:10.329Z,25.00
2018-08-18T16:22:12.989Z,25.00
2018-08-18T16:26:15.607Z,25.00
2018-08-18T16:30:18.959Z,24.90
2018-08-18T16:34:21.557Z,24.60
2018-08-18T16:38:35.168Z,24.40
2018-08-18T16:42:37.882Z,24.40
2018-08-18T16:46:41.483Z,24.30
2018-08-18T16:50:44.370Z,24.20
2018-08-18T16:54:47.026Z,24.10
2018-08-18T16:58:51.083Z,23.90
2018-08-18T17:02:53.772Z,23.70
2018-08-18T17:06:56.581Z,23.60
2018-08-18T17:10:59.316Z,23.40
2018-08-18T17:15:02.565Z,23.30
2018-08-18T17:19:05.217Z,23.20
2018-08-18T17:23:07.800Z,23.20
2018-08-18T17:27:10.499Z,23.00
2018-08-18T17:31:13.289Z,22.80
2018-08-18T17:35:15.930Z,22.80
2018-08-18T17:39:18.634Z,22.80
2018-08-18T17:43:21.395Z,22.80
2018-08-18T17:47:24.072Z,22.80
2018-08-18T17:51:27.125Z,22.80
2018-08-18T17:55:29.746Z,22.80
2018-08-18T17:59:33.247Z,22.70
2018-08-18T18:03:35.848Z,22.60
2018-08-18T18:07:38.456Z,22.60
2018-08-18T18:11:41.062Z,22.50
2018-08-18T18:15:44.833Z,22.50
2018-08-18T18:19:47.637Z,22.50
2018-08-18T18:23:50.287Z,22.40
2018-08-18T18:27:52.954Z,22.20
2018-08-18T18:31:56.313Z,22.30
2018-08-18T18:35:59.245Z,22.30
2018-08-18T18:40:04.329Z,22.30
2018-08-18T18:44:07.053Z,22.20
2018-08-18T18:48:12.657Z,22.20
2018-08-18T18:52:16.990Z,22.20
2018-08-18T18:56:19.894Z,22.50
2018-08-18T19:00:22.579Z,22.10
2018-08-18T19:04:25.264Z,22.10
2018-08-18T19:08:27.993Z,22.10
2018-08-18T19:12:30.730Z,22.10
2018-08-18T19:16:33.371Z,22.00
2018-08-18T19:20:36.009Z,21.90
2018-08-18T19:24:38.675Z,21.90
2018-08-18T19:28:41.770Z,21.80
2018-08-18T19:32:44.477Z,22.00
2018-08-18T19:36:57.132Z,22.10
2018-08-18T19:40:59.760Z,22.10
2018-08-18T19:45:02.554Z,22.20
2018-08-18T19:49:05.272Z,22.00
2018-08-18T19:53:11.057Z,22.10
2018-08-18T19:57:17.349Z,22.00
2018-08-18T20:01:20.134Z,22.10
2018-08-18T20:05:23.035Z,22.00
2018-08-18T20:09:25.649Z,22.00
2018-08-18T20:13:29.829Z,21.70
2018-08-18T20:17:32.456Z,21.50
2018-08-18T20:21:35.849Z,21.90
2018-08-18T20:25:38.755Z,21.80
2018-08-18T20:29:41.789Z,21.60
2018-08-18T20:33:45.649Z,21.50
2018-08-18T20:37:48.287Z,21.60
2018-08-18T20:41:51.106Z,21.30
2018-08-18T20:45:53.891Z,21.20
2018-08-18T20:49:57.225Z,21.40
2018-08-18T20:54:00.713Z,21.40
2018-08-18T20:58:03.444Z,21.30
2018-08-18T21:02:06.592Z,21.00
2018-08-18T21:06:09.260Z,21.20
2018-08-18T21:10:12.581Z,21.00
2018-08-18T21:14:15.216Z,20.60
2018-08-18T21:18:19.277Z,20.40
2018-08-18T21:22:25.367Z,20.40
2018-08-18T21:26:28.276Z,19.80
2018-08-18T21:30:30.844Z,19.60
2018-08-18T21:34:43.708Z,19.30
2018-08-18T21:38:46.500Z,19.20
2018-08-18T21:42:49.165Z,19.10
2018-08-18T21:46:51.911Z,19.40
2018-08-18T21:50:54.521Z,19.40
2018-08-18T21:54:58.290Z,19.10
2018-08-18T21:59:01.050Z,18.90
2018-08-18T22:03:03.829Z,18.80
2018-08-18T22:07:06.482Z,18.70
2018-08-18T22:11:13.521Z,18.50
2018-08-18T22:15:19.719Z,18.30
2018-08-18T22:19:22.519Z,18.30
2018-08-18T22:23:25.778Z,18.20
2018-08-18T22:27:28.485Z,18.70
2018-08-18T22:31:31.972Z,18.40
2018-08-18T22:35:37.575Z,18.20
2018-08-18T22:39:40.421Z,18.60
2018-08-18T22:43:43.138Z,18.30
2018-08-18T22:47:45.788Z,18.00
2018-08-18T22:51:48.453Z,18.20
2018-08-18T22:55:51.051Z,18.00
2018-08-18T22:59:53.792Z,17.80
2018-08-18T23:03:56.387Z,17.50
2018-08-18T23:07:58.982Z,17.50
2018-08-18T23:12:03.415Z,17.60
2018-08-18T23:16:06.001Z,17.50
2018-08-18T23:20:08.615Z,17.40
2018-08-18T23:24:24.466Z,17.30
2018-08-18T23:28:27.054Z,17.40
2018-08-18T23:32:36.342Z,17.30
2018-08-18T23:36:38.876Z,17.10
2018-08-18T23:40:41.475Z,17.20
2018-08-18T23:44:44.101Z,17.20
2018-08-18T23:48:46.702Z,17.10
2018-08-18T23:52:58.915Z,17.60
2018-08-18T23:57:01.491Z,17.50
